sensor_id;sensor_type;location;lat;lon;timestamp;pressure;altitude;pressure_sealevel;temperature;humidity
59289;BME280;45056;47.602;9.886;2023-09-19T00:01:02;92865.09;;;17.09;63.75
59289;BME280;45056;47.602;9.886;2023-09-19T00:03:31;92867.84;;;17.09;63.82
59289;BME280;45056;47.602;9.886;2023-09-19T00:06:00;92867.34;;;17.10;63.81
59289;BME280;45056;47.602;9.886;2023-09-19T00:08:28;92869.88;;;17.14;63.32
59289;BME280;45056;47.602;9.886;2023-09-19T00:10:56;92874.66;;;17.19;62.50
59289;BME280;45056;47.602;9.886;2023-09-19T00:13:29;92875.97;;;17.24;61.73
59289;BME280;45056;47.602;9.886;2023-09-19T00:15:57;92876.28;;;17.31;61.12
59289;BME280;45056;47.602;9.886;2023-09-19T00:18:26;92886.84;;;17.39;60.70
59289;BME280;45056;47.602;9.886;2023-09-19T00:20:58;92884.13;;;17.44;60.35
59289;BME280;45056;47.602;9.886;2023-09-19T00:23:26;92880.97;;;17.52;60.24
59289;BME280;45056;47.602;9.886;2023-09-19T00:25:58;92886.47;;;17.57;60.13
59289;BME280;45056;47.602;9.886;2023-09-19T00:28:27;92886.78;;;17.65;60.21
59289;BME280;45056;47.602;9.886;2023-09-19T00:30:56;92889.59;;;17.71;60.16
59289;BME280;45056;47.602;9.886;2023-09-19T00:33:28;92897.13;;;17.76;60.00
59289;BME280;45056;47.602;9.886;2023-09-19T00:35:58;92897.66;;;17.80;60.03
59289;BME280;45056;47.602;9.886;2023-09-19T00:38:26;92901.44;;;17.83;60.00
59289;BME280;45056;47.602;9.886;2023-09-19T00:40:54;92905.97;;;17.86;60.14
59289;BME280;45056;47.602;9.886;2023-09-19T00:43:23;92902.22;;;17.89;60.41
59289;BME280;45056;47.602;9.886;2023-09-19T00:45:53;92904.97;;;17.89;60.57
59289;BME280;45056;47.602;9.886;2023-09-19T00:48:23;92905.72;;;17.89;61.00
59289;BME280;45056;47.602;9.886;2023-09-19T00:50:54;92893.72;;;17.87;61.48
59289;BME280;45056;47.602;9.886;2023-09-19T00:53:31;92897.44;;;17.84;61.91
59289;BME280;45056;47.602;9.886;2023-09-19T00:56:02;92890.91;;;17.81;62.37
59289;BME280;45056;47.602;9.886;2023-09-19T00:58:32;92899.38;;;17.78;62.55
59289;BME280;45056;47.602;9.886;2023-09-19T01:01:02;92895.13;;;17.77;62.69
59289;BME280;45056;47.602;9.886;2023-09-19T01:03:33;92902.38;;;17.74;62.94
59289;BME280;45056;47.602;9.886;2023-09-19T01:06:03;92905.59;;;17.72;63.02
59289;BME280;45056;47.602;9.886;2023-09-19T01:08:31;92892.09;;;17.69;63.05
59289;BME280;45056;47.602;9.886;2023-09-19T01:11:03;92892.56;;;17.67;62.94
59289;BME280;45056;47.602;9.886;2023-09-19T01:13:48;92896.28;;;17.64;62.47
59289;BME280;45056;47.602;9.886;2023-09-19T01:16:35;92892.50;;;17.62;63.12
59289;BME280;45056;47.602;9.886;2023-09-19T01:22:45;92890.72;;;17.53;63.91
59289;BME280;45056;47.602;9.886;2023-09-19T01:25:50;92899.19;;;17.49;64.43
59289;BME280;45056;47.602;9.886;2023-09-19T01:28:45;92904.63;;;17.43;63.89
59289;BME280;45056;47.602;9.886;2023-09-19T01:31:25;92897.34;;;17.40;64.23
59289;BME280;45056;47.602;9.886;2023-09-19T01:34:01;92899.84;;;17.38;64.00
59289;BME280;45056;47.602;9.886;2023-09-19T01:36:33;92884.56;;;17.37;63.40
59289;BME280;45056;47.602;9.886;2023-09-19T01:39:04;92886.09;;;17.38;62.61
59289;BME280;45056;47.602;9.886;2023-09-19T01:41:54;92897.84;;;17.39;62.80
59289;BME280;45056;47.602;9.886;2023-09-19T01:44:36;92893.59;;;17.38;62.49
59289;BME280;45056;47.602;9.886;2023-09-19T01:47:22;92888.84;;;17.38;62.28
59289;BME280;45056;47.602;9.886;2023-09-19T01:50:02;92898.59;;;17.39;62.18
59289;BME280;45056;47.602;9.886;2023-09-19T01:52:48;92895.09;;;17.39;61.75
59289;BME280;45056;47.602;9.886;2023-09-19T01:55:21;92898.59;;;17.39;61.40
59289;BME280;45056;47.602;9.886;2023-09-19T01:58:08;92904.09;;;17.39;61.21
59289;BME280;45056;47.602;9.886;2023-09-19T02:00:46;92902.59;;;17.38;61.34
59289;BME280;45056;47.602;9.886;2023-09-19T02:03:20;92908.09;;;17.38;61.30
59289;BME280;45056;47.602;9.886;2023-09-19T02:05:50;92912.34;;;17.39;61.05
59289;BME280;45056;47.602;9.886;2023-09-19T02:08:22;92905.59;;;17.40;60.97
59289;BME280;45056;47.602;9.886;2023-09-19T02:10:51;92913.38;;;17.42;60.80
59289;BME280;45056;47.602;9.886;2023-09-19T02:13:22;92918.09;;;17.41;60.86
59289;BME280;45056;47.602;9.886;2023-09-19T02:15:53;92918.09;;;17.41;60.74
59289;BME280;45056;47.602;9.886;2023-09-19T02:18:23;92912.34;;;17.39;60.89
59289;BME280;45056;47.602;9.886;2023-09-19T02:20:53;92906.09;;;17.39;60.82
59289;BME280;45056;47.602;9.886;2023-09-19T02:23:22;92916.59;;;17.40;60.97
59289;BME280;45056;47.602;9.886;2023-09-19T02:25:54;92909.84;;;17.41;61.04
59289;BME280;45056;47.602;9.886;2023-09-19T02:28:24;92907.09;;;17.41;60.91
59289;BME280;45056;47.602;9.886;2023-09-19T02:30:56;92908.63;;;17.42;61.32
59289;BME280;45056;47.602;9.886;2023-09-19T02:33:25;92908.63;;;17.42;61.35
59289;BME280;45056;47.602;9.886;2023-09-19T02:35:55;92907.09;;;17.41;61.48
59289;BME280;45056;47.602;9.886;2023-09-19T02:38:25;92915.34;;;17.41;61.65
59289;BME280;45056;47.602;9.886;2023-09-19T02:40:53;92917.38;;;17.41;61.79
59289;BME280;45056;47.602;9.886;2023-09-19T02:43:22;92915.34;;;17.41;62.01
59289;BME280;45056;47.602;9.886;2023-09-19T02:45:50;92918.88;;;17.42;61.88
59289;BME280;45056;47.602;9.886;2023-09-19T02:48:19;92911.09;;;17.40;62.13
59289;BME280;45056;47.602;9.886;2023-09-19T02:50:50;92916.59;;;17.40;62.21
59289;BME280;45056;47.602;9.886;2023-09-19T02:53:19;92923.34;;;17.39;62.16
59289;BME280;45056;47.602;9.886;2023-09-19T02:55:47;92923.34;;;17.39;61.99
59289;BME280;45056;47.602;9.886;2023-09-19T02:58:15;92924.59;;;17.38;62.04
59289;BME280;45056;47.602;9.886;2023-09-19T03:00:45;92924.59;;;17.38;62.23
59289;BME280;45056;47.602;9.886;2023-09-19T03:03:14;92923.34;;;17.39;62.13
59289;BME280;45056;47.602;9.886;2023-09-19T03:05:42;92930.09;;;17.38;61.97
59289;BME280;45056;47.602;9.886;2023-09-19T03:08:15;92926.09;;;17.39;62.15
59289;BME280;45056;47.602;9.886;2023-09-19T03:10:46;92920.59;;;17.39;62.10
59289;BME280;45056;47.602;9.886;2023-09-19T03:13:14;92930.34;;;17.40;61.78
59289;BME280;45056;47.602;9.886;2023-09-19T03:15:42;92923.59;;;17.41;61.76
59289;BME280;45056;47.602;9.886;2023-09-19T03:18:13;92929.09;;;17.41;61.81
59289;BME280;45056;47.602;9.886;2023-09-19T03:20:41;92925.13;;;17.42;61.55
59289;BME280;45056;47.602;9.886;2023-09-19T03:23:09;92931.84;;;17.41;61.63
59289;BME280;45056;47.602;9.886;2023-09-19T03:25:38;92930.34;;;17.40;61.21
59289;BME280;45056;47.602;9.886;2023-09-19T03:28:07;92928.09;;;17.39;61.30
59289;BME280;45056;47.602;9.886;2023-09-19T03:30:36;92931.59;;;17.39;61.13
59289;BME280;45056;47.602;9.886;2023-09-19T03:33:05;92938.59;;;17.40;61.28
59289;BME280;45056;47.602;9.886;2023-09-19T03:35:33;92931.13;;;17.41;61.01
59289;BME280;45056;47.602;9.886;2023-09-19T03:38:01;92935.84;;;17.40;61.01
59289;BME280;45056;47.602;9.886;2023-09-19T03:40:29;92939.38;;;17.41;61.16
59289;BME280;45056;47.602;9.886;2023-09-19T03:43:01;92941.84;;;17.39;61.32
59289;BME280;45056;47.602;9.886;2023-09-19T03:45:29;92935.59;;;17.38;61.36
59289;BME280;45056;47.602;9.886;2023-09-19T03:47:57;92937.09;;;17.39;61.63
59289;BME280;45056;47.602;9.886;2023-09-19T03:50:25;92928.09;;;17.39;61.67
59289;BME280;45056;47.602;9.886;2023-09-19T03:52:56;92939.56;;;17.37;61.69
59289;BME280;45056;47.602;9.886;2023-09-19T03:55:24;92937.78;;;17.34;61.86
59289;BME280;45056;47.602;9.886;2023-09-19T03:57:53;92932.03;;;17.32;61.80
59289;BME280;45056;47.602;9.886;2023-09-19T04:00:22;92930.53;;;17.31;62.09
59289;BME280;45056;47.602;9.886;2023-09-19T04:02:53;92938.50;;;17.29;62.06
59289;BME280;45056;47.602;9.886;2023-09-19T04:05:23;92942.00;;;17.29;62.19
59289;BME280;45056;47.602;9.886;2023-09-19T04:07:51;92933.00;;;17.29;62.26
59289;BME280;45056;47.602;9.886;2023-09-19T04:10:20;92927.25;;;17.27;62.37
59289;BME280;45056;47.602;9.886;2023-09-19T04:12:51;92929.97;;;17.27;62.28
59289;BME280;45056;47.602;9.886;2023-09-19T04:15:22;92927.72;;;17.25;62.63
59289;BME280;45056;47.602;9.886;2023-09-19T04:17:51;92933.97;;;17.26;62.60
59289;BME280;45056;47.602;9.886;2023-09-19T04:20:19;92928.47;;;17.26;62.57
59289;BME280;45056;47.602;9.886;2023-09-19T04:22:49;92931.50;;;17.28;62.54
59289;BME280;45056;47.602;9.886;2023-09-19T04:25:17;92929.47;;;17.28;62.52
59289;BME280;45056;47.602;9.886;2023-09-19T04:27:46;92927.50;;;17.29;62.63
59289;BME280;45056;47.602;9.886;2023-09-19T04:30:15;92924.75;;;17.29;62.69
59289;BME280;45056;47.602;9.886;2023-09-19T04:32:45;92942.25;;;17.31;62.71
59289;BME280;45056;47.602;9.886;2023-09-19T04:35:17;92932.03;;;17.32;62.86
59289;BME280;45056;47.602;9.886;2023-09-19T04:37:45;92932.28;;;17.34;62.84
59289;BME280;45056;47.602;9.886;2023-09-19T04:40:14;92931.81;;;17.36;62.68
59289;BME280;45056;47.602;9.886;2023-09-19T04:42:43;92936.09;;;17.37;62.72
59289;BME280;45056;47.602;9.886;2023-09-19T04:45:12;92929.34;;;17.38;62.82
59289;BME280;45056;47.602;9.886;2023-09-19T04:47:41;92939.09;;;17.39;62.64
59289;BME280;45056;47.602;9.886;2023-09-19T04:50:11;92937.84;;;17.40;62.71
59289;BME280;45056;47.602;9.886;2023-09-19T04:52:41;92938.13;;;17.42;62.66
59289;BME280;45056;47.602;9.886;2023-09-19T04:55:11;92945.59;;;17.41;62.76
59289;BME280;45056;47.602;9.886;2023-09-19T04:57:43;92940.88;;;17.42;62.36
59289;BME280;45056;47.602;9.886;2023-09-19T05:00:13;92947.88;;;17.43;62.44
59289;BME280;45056;47.602;9.886;2023-09-19T05:02:43;92954.91;;;17.44;62.43
59289;BME280;45056;47.602;9.886;2023-09-19T05:05:13;92951.38;;;17.43;62.43
59289;BME280;45056;47.602;9.886;2023-09-19T05:07:43;92962.88;;;17.42;62.26
59289;BME280;45056;47.602;9.886;2023-09-19T05:10:12;92957.84;;;17.40;62.59
59289;BME280;45056;47.602;9.886;2023-09-19T05:12:41;92970.09;;;17.39;62.71
59289;BME280;45056;47.602;9.886;2023-09-19T05:15:11;92965.09;;;17.38;62.63
59289;BME280;45056;47.602;9.886;2023-09-19T05:17:41;92972.31;;;17.35;62.60
59289;BME280;45056;47.602;9.886;2023-09-19T05:20:10;92970.78;;;17.34;62.72
59289;BME280;45056;47.602;9.886;2023-09-19T05:22:57;92977.53;;;17.33;62.88
59289;BME280;45056;47.602;9.886;2023-09-19T05:25:28;92983.03;;;17.33;62.94
59289;BME280;45056;47.602;9.886;2023-09-19T05:27:57;92987.03;;;17.32;62.63
59289;BME280;45056;47.602;9.886;2023-09-19T05:30:26;92982.28;;;17.33;62.65
59289;BME280;45056;47.602;9.886;2023-09-19T05:32:55;92986.25;;;17.31;62.82
59289;BME280;45056;47.602;9.886;2023-09-19T05:35:25;92986.25;;;17.31;62.95
59289;BME280;45056;47.602;9.886;2023-09-19T05:37:54;92987.78;;;17.33;62.75
59289;BME280;45056;47.602;9.886;2023-09-19T05:40:22;92991.28;;;17.33;62.55
59289;BME280;45056;47.602;9.886;2023-09-19T05:42:50;92991.56;;;17.35;62.28
59289;BME280;45056;47.602;9.886;2023-09-19T05:45:19;92991.81;;;17.37;62.18
59289;BME280;45056;47.602;9.886;2023-09-19T05:47:49;93003.09;;;17.39;61.81
59289;BME280;45056;47.602;9.886;2023-09-19T05:50:17;93001.38;;;17.42;61.73
59289;BME280;45056;47.602;9.886;2023-09-19T05:52:53;92997.66;;;17.45;61.42
59289;BME280;45056;47.602;9.886;2023-09-19T05:55:22;92999.91;;;17.47;61.00
59289;BME280;45056;47.602;9.886;2023-09-19T05:57:52;93002.66;;;17.47;60.87
59289;BME280;45056;47.602;9.886;2023-09-19T06:00:22;93004.94;;;17.48;60.91
59289;BME280;45056;47.602;9.886;2023-09-19T06:02:53;93015.47;;;17.50;60.54
59289;BME280;45056;47.602;9.886;2023-09-19T06:05:25;93014.69;;;17.49;60.38
59289;BME280;45056;47.602;9.886;2023-09-19T06:07:56;93004.94;;;17.48;60.40
59289;BME280;45056;47.602;9.886;2023-09-19T06:10:28;93017.44;;;17.49;60.33
59289;BME280;45056;47.602;9.886;2023-09-19T06:12:58;93020.47;;;17.51;60.12
59289;BME280;45056;47.602;9.886;2023-09-19T06:15:26;93017.97;;;17.53;60.35
59289;BME280;45056;47.602;9.886;2023-09-19T06:17:55;93015.50;;;17.55;60.27
59289;BME280;45056;47.602;9.886;2023-09-19T06:20:25;93024.03;;;17.57;60.15
59289;BME280;45056;47.602;9.886;2023-09-19T06:22:54;93022.31;;;17.60;60.24
59289;BME280;45056;47.602;9.886;2023-09-19T06:25:28;93024.56;;;17.62;59.99
59289;BME280;45056;47.602;9.886;2023-09-19T06:27:56;93026.84;;;17.63;60.00
59289;BME280;45056;47.602;9.886;2023-09-19T06:30:24;93022.09;;;17.64;60.17
59289;BME280;45056;47.602;9.886;2023-09-19T06:32:56;93022.09;;;17.64;59.92
59289;BME280;45056;47.602;9.886;2023-09-19T06:35:25;93026.84;;;17.63;60.17
59289;BME280;45056;47.602;9.886;2023-09-19T06:37:54;93024.84;;;17.64;60.08
59289;BME280;45056;47.602;9.886;2023-09-19T06:40:25;93024.34;;;17.65;60.19
59289;BME280;45056;47.602;9.886;2023-09-19T06:42:54;93031.38;;;17.66;60.05
59289;BME280;45056;47.602;9.886;2023-09-19T06:45:22;93040.66;;;17.69;60.07
59289;BME280;45056;47.602;9.886;2023-09-19T06:47:53;93034.91;;;17.72;60.20
59289;BME280;45056;47.602;9.886;2023-09-19T06:50:24;93044.47;;;17.77;60.31
59289;BME280;45056;47.602;9.886;2023-09-19T06:52:54;93049.00;;;17.80;60.45
59289;BME280;45056;47.602;9.886;2023-09-19T06:55:25;93048.81;;;17.84;60.38
59289;BME280;45056;47.602;9.886;2023-09-19T06:57:54;93044.31;;;17.86;60.36
59289;BME280;45056;47.602;9.886;2023-09-19T07:00:23;93051.59;;;17.89;60.10
59289;BME280;45056;47.602;9.886;2023-09-19T07:02:56;93054.88;;;17.94;60.30
59289;BME280;45056;47.602;9.886;2023-09-19T07:05:25;93056.94;;;17.99;60.04
59289;BME280;45056;47.602;9.886;2023-09-19T07:07:54;93065.75;;;18.03;60.28
59289;BME280;45056;47.602;9.886;2023-09-19T07:10:22;93058.25;;;18.03;60.15
59289;BME280;45056;47.602;9.886;2023-09-19T07:12:58;93055.75;;;18.06;60.20
59289;BME280;45056;47.602;9.886;2023-09-19T07:15:27;93071.81;;;18.07;60.24
59289;BME280;45056;47.602;9.886;2023-09-19T07:17:57;93064.28;;;18.08;60.00
59289;BME280;45056;47.602;9.886;2023-09-19T07:20:25;93070.28;;;18.06;59.77
59289;BME280;45056;47.602;9.886;2023-09-19T07:22:54;93063.75;;;18.03;59.58
59289;BME280;45056;47.602;9.886;2023-09-19T07:25:22;93070.19;;;18.00;59.85
59289;BME280;45056;47.602;9.886;2023-09-19T07:27:51;93077.72;;;18.00;59.67
59289;BME280;45056;47.602;9.886;2023-09-19T07:30:21;93074.19;;;17.99;59.80
59289;BME280;45056;47.602;9.886;2023-09-19T07:32:49;93075.72;;;18.00;59.73
59289;BME280;45056;47.602;9.886;2023-09-19T07:35:18;93078.47;;;18.00;59.65
59289;BME280;45056;47.602;9.886;2023-09-19T07:37:46;93085.03;;;18.03;59.63
59289;BME280;45056;47.602;9.886;2023-09-19T07:40:16;93087.28;;;18.05;59.81
59289;BME280;45056;47.602;9.886;2023-09-19T07:42:44;93082.81;;;18.07;59.96
59289;BME280;45056;47.602;9.886;2023-09-19T07:45:13;93100.38;;;18.10;59.64
59289;BME280;45056;47.602;9.886;2023-09-19T07:47:46;93101.59;;;18.09;59.42
59289;BME280;45056;47.602;9.886;2023-09-19T07:50:15;93104.84;;;18.07;59.50
59289;BME280;45056;47.602;9.886;2023-09-19T07:52:45;93113.84;;;18.08;59.39
59289;BME280;45056;47.602;9.886;2023-09-19T07:55:14;93112.59;;;18.09;59.48
59289;BME280;45056;47.602;9.886;2023-09-19T07:57:43;93107.38;;;18.11;59.59
59289;BME280;45056;47.602;9.886;2023-09-19T08:00:13;93110.41;;;18.13;59.62
59289;BME280;45056;47.602;9.886;2023-09-19T08:02:44;93125.19;;;18.15;59.70
59289;BME280;45056;47.602;9.886;2023-09-19T08:05:14;93112.44;;;18.18;59.74
59289;BME280;45056;47.602;9.886;2023-09-19T08:07:44;93112.22;;;18.22;60.16
59289;BME280;45056;47.602;9.886;2023-09-19T08:10:15;93116.00;;;18.24;59.88
59289;BME280;45056;47.602;9.886;2023-09-19T08:12:47;93130.03;;;18.26;60.10
59289;BME280;45056;47.602;9.886;2023-09-19T08:15:22;93120.06;;;18.29;60.13
59289;BME280;45056;47.602;9.886;2023-09-19T08:17:52;93123.81;;;18.31;60.35
59289;BME280;45056;47.602;9.886;2023-09-19T08:20:20;93122.09;;;18.34;60.39
59289;BME280;45056;47.602;9.886;2023-09-19T08:22:49;93131.09;;;18.35;60.28
59289;BME280;45056;47.602;9.886;2023-09-19T08:25:18;93126.09;;;18.33;60.16
59289;BME280;45056;47.602;9.886;2023-09-19T08:27:47;93128.59;;;18.31;60.25
59289;BME280;45056;47.602;9.886;2023-09-19T08:30:16;93135.53;;;18.26;60.40
59289;BME280;45056;47.602;9.886;2023-09-19T08:32:46;93130.25;;;18.23;60.68
59289;BME280;45056;47.602;9.886;2023-09-19T08:35:16;93132.53;;;18.24;60.87
59289;BME280;45056;47.602;9.886;2023-09-19T08:37:45;93139.53;;;18.25;60.74
59289;BME280;45056;47.602;9.886;2023-09-19T08:40:14;93137.06;;;18.27;60.67
59289;BME280;45056;47.602;9.886;2023-09-19T08:42:49;93132.78;;;18.26;60.45
59289;BME280;45056;47.602;9.886;2023-09-19T08:45:17;93135.28;;;18.24;60.59
59289;BME280;45056;47.602;9.886;2023-09-19T08:47:52;93131.00;;;18.23;60.94
59289;BME280;45056;47.602;9.886;2023-09-19T08:50:30;93141.53;;;18.25;60.82
59289;BME280;45056;47.602;9.886;2023-09-19T08:53:01;93134.50;;;18.24;60.97
59289;BME280;45056;47.602;9.886;2023-09-19T08:55:38;93143.06;;;18.26;61.03
59289;BME280;45056;47.602;9.886;2023-09-19T08:58:10;93144.06;;;18.28;60.97
59289;BME280;45056;47.602;9.886;2023-09-19T09:00:45;93135.09;;;18.34;61.02
59289;BME280;45056;47.602;9.886;2023-09-19T09:03:16;93132.88;;;18.38;60.76
59289;BME280;45056;47.602;9.886;2023-09-19T09:05:50;93136.19;;;18.42;60.83
59289;BME280;45056;47.602;9.886;2023-09-19T09:08:19;93135.75;;;18.49;60.46
59289;BME280;45056;47.602;9.886;2023-09-19T09:10:50;93135.28;;;18.56;60.42
59289;BME280;45056;47.602;9.886;2023-09-19T09:13:19;93124.31;;;18.62;60.04
59289;BME280;45056;47.602;9.886;2023-09-19T09:15:48;93126.38;;;18.67;59.20
59289;BME280;45056;47.602;9.886;2023-09-19T09:18:17;93138.38;;;18.70;58.85
59289;BME280;45056;47.602;9.886;2023-09-19T09:20:45;93129.91;;;18.73;58.35
59289;BME280;45056;47.602;9.886;2023-09-19T09:23:15;93136.19;;;18.74;58.06
59289;BME280;45056;47.602;9.886;2023-09-19T09:25:48;93142.22;;;18.78;58.31
59289;BME280;45056;47.602;9.886;2023-09-19T09:28:22;93140.75;;;18.83;58.24
59289;BME280;45056;47.602;9.886;2023-09-19T09:30:51;93142.03;;;18.87;58.24
59289;BME280;45056;47.602;9.886;2023-09-19T09:33:20;93138.56;;;18.93;57.79
59289;BME280;45056;47.602;9.886;2023-09-19T09:35:50;93151.59;;;18.92;57.16
59289;BME280;45056;47.602;9.886;2023-09-19T09:38:22;93144.06;;;18.93;57.38
59289;BME280;45056;47.602;9.886;2023-09-19T09:40:55;93141.56;;;18.95;57.36
59289;BME280;45056;47.602;9.886;2023-09-19T09:43:30;93147.34;;;18.97;57.30
59289;BME280;45056;47.602;9.886;2023-09-19T09:46:07;93148.13;;;18.97;57.41
59289;BME280;45056;47.602;9.886;2023-09-19T09:49:00;93146.41;;;19.00;57.11
59289;BME280;45056;47.602;9.886;2023-09-19T09:51:49;93143.41;;;19.03;57.13
59289;BME280;45056;47.602;9.886;2023-09-19T09:54:29;93142.94;;;19.05;56.97
59289;BME280;45056;47.602;9.886;2023-09-19T09:57:05;93144.44;;;19.06;57.16
59289;BME280;45056;47.602;9.886;2023-09-19T09:59:45;93146.94;;;19.04;56.65
59289;BME280;45056;47.602;9.886;2023-09-19T10:02:14;93137.56;;;18.96;56.80
59289;BME280;45056;47.602;9.886;2023-09-19T10:04:49;93147.59;;;18.93;56.64
59289;BME280;45056;47.602;9.886;2023-09-19T10:07:36;93144.84;;;18.93;56.76
59289;BME280;45056;47.602;9.886;2023-09-19T10:10:09;93146.59;;;18.96;57.24
59289;BME280;45056;47.602;9.886;2023-09-19T10:12:45;93146.19;;;19.03;57.38
59289;BME280;45056;47.602;9.886;2023-09-19T10:15:16;93147.72;;;19.10;57.23
59289;BME280;45056;47.602;9.886;2023-09-19T10:17:47;93140.72;;;19.15;56.88
59289;BME280;45056;47.602;9.886;2023-09-19T10:20:17;93140.75;;;19.21;57.32
59289;BME280;45056;47.602;9.886;2023-09-19T10:23:09;93139.03;;;19.29;57.25
59289;BME280;45056;47.602;9.886;2023-09-19T10:25:42;93136.56;;;19.37;56.79
59289;BME280;45056;47.602;9.886;2023-09-19T10:28:15;93136.88;;;19.44;56.66
59289;BME280;45056;47.602;9.886;2023-09-19T10:30:49;93138.13;;;19.49;56.26
59289;BME280;45056;47.602;9.886;2023-09-19T10:33:20;93143.16;;;19.51;56.08
59289;BME280;45056;47.602;9.886;2023-09-19T10:35:50;93148.69;;;19.51;55.37
59289;BME280;45056;47.602;9.886;2023-09-19T10:38:19;93138.13;;;19.49;55.26
59289;BME280;45056;47.602;9.886;2023-09-19T10:40:54;93148.44;;;19.49;55.66
59289;BME280;45056;47.602;9.886;2023-09-19T10:43:30;93150.94;;;19.46;55.75
59289;BME280;45056;47.602;9.886;2023-09-19T10:46:02;93156.22;;;19.50;55.94
59289;BME280;45056;47.602;9.886;2023-09-19T10:48:37;93154.47;;;19.53;55.69
59289;BME280;45056;47.602;9.886;2023-09-19T10:51:11;93157.47;;;19.55;55.59
59289;BME280;45056;47.602;9.886;2023-09-19T10:53:46;93163.75;;;19.55;56.35
59289;BME280;45056;47.602;9.886;2023-09-19T10:56:24;93160.75;;;19.53;57.08
59289;BME280;45056;47.602;9.886;2023-09-19T10:59:06;93158.22;;;19.50;57.91
59289;BME280;45056;47.602;9.886;2023-09-19T11:01:43;93153.69;;;19.46;58.81
59289;BME280;45056;47.602;9.886;2023-09-19T11:04:32;93146.91;;;19.48;59.02
59289;BME280;45056;47.602;9.886;2023-09-19T11:07:04;93157.94;;;19.48;59.43
59289;BME280;45056;47.602;9.886;2023-09-19T11:09:45;93158.44;;;19.46;59.15
59289;BME280;45056;47.602;9.886;2023-09-19T11:12:50;93154.41;;;19.41;59.08
59289;BME280;45056;47.602;9.886;2023-09-19T11:18:52;93144.63;;;19.46;58.48
59289;BME280;45056;47.602;9.886;2023-09-19T11:21:54;93150.44;;;19.54;57.52
59289;BME280;45056;47.602;9.886;2023-09-19T11:24:29;93142.44;;;19.56;57.05
59289;BME280;45056;47.602;9.886;2023-09-19T11:27:14;93147.94;;;19.56;56.26
59289;BME280;45056;47.602;9.886;2023-09-19T11:29:45;93145.91;;;19.51;55.89
59289;BME280;45056;47.602;9.886;2023-09-19T11:32:15;93144.63;;;19.46;56.08
59289;BME280;45056;47.602;9.886;2023-09-19T11:34:47;93145.88;;;19.45;55.85
59289;BME280;45056;47.602;9.886;2023-09-19T11:40:45;93143.69;;;19.55;55.55
59289;BME280;45056;47.602;9.886;2023-09-19T11:43:29;93145.97;;;19.62;55.57
59289;BME280;45056;47.602;9.886;2023-09-19T11:46:07;93139.00;;;19.72;55.15
59289;BME280;45056;47.602;9.886;2023-09-19T11:48:36;93134.53;;;19.86;55.33
59289;BME280;45056;47.602;9.886;2023-09-19T11:51:18;93140.13;;;20.03;54.70
59289;BME280;45056;47.602;9.886;2023-09-19T11:53:50;93142.13;;;20.20;54.31
59289;BME280;45056;47.602;9.886;2023-09-19T11:56:19;93133.63;;;20.29;53.71
59289;BME280;45056;47.602;9.886;2023-09-19T11:58:51;93133.13;;;20.37;53.19
59289;BME280;45056;47.602;9.886;2023-09-19T12:01:24;93142.41;;;20.39;52.95
59289;BME280;45056;47.602;9.886;2023-09-19T12:03:57;93132.13;;;20.40;52.93
59289;BME280;45056;47.602;9.886;2023-09-19T12:06:27;93126.59;;;20.40;52.74
59289;BME280;45056;47.602;9.886;2023-09-19T12:08:58;93134.13;;;20.39;52.75
59289;BME280;45056;47.602;9.886;2023-09-19T12:11:29;93124.06;;;20.36;53.11
59289;BME280;45056;47.602;9.886;2023-09-19T12:14:01;93124.06;;;20.36;53.06
59289;BME280;45056;47.602;9.886;2023-09-19T12:16:31;93111.78;;;20.49;53.06
59289;BME280;45056;47.602;9.886;2023-09-19T12:19:18;93120.81;;;20.72;52.01
59289;BME280;45056;47.602;9.886;2023-09-19T12:21:55;93114.53;;;20.88;51.37
59289;BME280;45056;47.602;9.886;2023-09-19T12:24:26;93116.31;;;20.92;51.33
59289;BME280;45056;47.602;9.886;2023-09-19T12:27:01;93112.78;;;20.97;51.50
59289;BME280;45056;47.602;9.886;2023-09-19T12:29:41;93115.28;;;21.06;50.98
59289;BME280;45056;47.602;9.886;2023-09-19T12:32:12;93113.53;;;21.09;50.36
59289;BME280;45056;47.602;9.886;2023-09-19T12:34:50;93111.50;;;21.09;50.55
59289;BME280;45056;47.602;9.886;2023-09-19T12:37:21;93109.47;;;21.15;51.12
59289;BME280;45056;47.602;9.886;2023-09-19T12:39:51;93105.44;;;21.16;50.94
59289;BME280;45056;47.602;9.886;2023-09-19T12:42:24;93107.94;;;21.20;51.34
59289;BME280;45056;47.602;9.886;2023-09-19T12:44:56;93100.63;;;21.34;50.42
59289;BME280;45056;47.602;9.886;2023-09-19T12:47:28;93088.72;;;21.51;49.85
59289;BME280;45056;47.602;9.886;2023-09-19T12:50:08;93096.47;;;21.69;49.29
59289;BME280;45056;47.602;9.886;2023-09-19T12:52:43;93095.13;;;21.87;50.25
59289;BME280;45056;47.602;9.886;2023-09-19T12:55:21;93090.28;;;21.99;48.48
59289;BME280;45056;47.602;9.886;2023-09-19T12:58:09;93087.97;;;22.03;47.92
59289;BME280;45056;47.602;9.886;2023-09-19T13:00:42;93089.16;;;22.14;48.37
59289;BME280;45056;47.602;9.886;2023-09-19T13:03:26;93088.94;;;22.12;47.53
59289;BME280;45056;47.602;9.886;2023-09-19T13:05:59;93088.78;;;21.98;47.35
59289;BME280;45056;47.602;9.886;2023-09-19T13:08:30;93086.56;;;21.91;47.22
59289;BME280;45056;47.602;9.886;2023-09-19T13:11:02;93079.22;;;21.94;46.90
59289;BME280;45056;47.602;9.886;2023-09-19T13:13:34;93079.91;;;22.05;47.16
59289;BME280;45056;47.602;9.886;2023-09-19T13:16:03;93073.31;;;22.14;45.98
59289;BME280;45056;47.602;9.886;2023-09-19T13:18:46;93074.53;;;22.19;46.56
59289;BME280;45056;47.602;9.886;2023-09-19T13:21:28;93072.72;;;22.27;47.02
59289;BME280;45056;47.602;9.886;2023-09-19T13:24:19;93073.38;;;22.39;46.99
59289;BME280;45056;47.602;9.886;2023-09-19T13:26:49;93073.31;;;22.45;46.06
59289;BME280;45056;47.602;9.886;2023-09-19T13:29:17;93080.91;;;22.50;45.51
59289;BME280;45056;47.602;9.886;2023-09-19T13:31:46;93073.31;;;22.51;45.22
59289;BME280;45056;47.602;9.886;2023-09-19T13:34:16;93077.09;;;22.53;45.00
59289;BME280;45056;47.602;9.886;2023-09-19T13:36:45;93070.53;;;22.51;44.40